createdAt,value
2018-06-12T00:00:41.837Z,94821.16
2018-06-12T00:03:10.394Z,94817.71
2018-06-12T00:05:38.934Z,94819.08
2018-06-12T00:08:07.498Z,94822.33
2018-06-12T00:10:36.037Z,94822.78
2018-06-12T00:13:04.606Z,94826.64
2018-06-12T00:15:33.149Z,94828.61
2018-06-12T00:18:05.477Z,94830.91
2018-06-12T00:20:34.018Z,94831.28
2018-06-12T00:23:02.554Z,94828.09
2018-06-12T00:25:31.129Z,94832.16
2018-06-12T00:27:59.682Z,94828.41
2018-06-12T00:30:29.204Z,94823.81
2018-06-12T00:32:57.776Z,94823.20
2018-06-12T00:35:26.316Z,94828.73
2018-06-12T00:37:54.875Z,94827.38
2018-06-12T00:40:25.399Z,94830.84
2018-06-12T00:42:53.979Z,94829.89
2018-06-12T00:45:22.512Z,94832.35
2018-06-12T00:47:51.051Z,94833.58
2018-06-12T00:50:19.584Z,94837.35
2018-06-12T00:52:48.124Z,94843.95
2018-06-12T00:55:16.693Z,94843.39
2018-06-12T00:57:45.256Z,94842.41
2018-06-12T01:00:13.824Z,94835.72
2018-06-12T01:02:42.364Z,94830.83
2018-06-12T01:05:10.912Z,94830.39
2018-06-12T01:07:39.471Z,94833.38
2018-06-12T01:10:08.014Z,94838.83
2018-06-12T01:12:36.558Z,94836.61
2018-06-12T01:15:05.111Z,94835.79
2018-06-12T01:17:34.550Z,94834.39
2018-06-12T01:20:03.093Z,94832.09
2018-06-12T01:22:31.639Z,94833.20
2018-06-12T01:25:00.200Z,94833.28
2018-06-12T01:27:28.742Z,94833.66
2018-06-12T01:29:57.346Z,94834.78
2018-06-12T01:32:27.827Z,94834.53
2018-06-12T01:34:57.315Z,94834.33
2018-06-12T01:37:29.478Z,94825.13
2018-06-12T01:39:58.037Z,94828.78
2018-06-12T01:42:26.575Z,94837.78
2018-06-12T01:44:55.114Z,94832.98
2018-06-12T01:47:23.667Z,94828.85
2018-06-12T01:49:52.203Z,94830.06
2018-06-12T01:52:30.163Z,94828.83
2018-06-12T01:55:00.653Z,94830.58
2018-06-12T01:57:29.180Z,94832.06
2018-06-12T01:59:57.732Z,94828.33
2018-06-12T02:02:26.276Z,94827.46
2018-06-12T02:04:58.116Z,94829.07
2018-06-12T02:07:26.658Z,94824.02
2018-06-12T02:09:55.205Z,94829.06
2018-06-12T02:14:09.430Z,94843.27
2018-06-12T02:16:38.497Z,94848.70
2018-06-12T02:19:07.558Z,94849.23
2018-06-12T02:21:36.616Z,94849.95
2018-06-12T02:24:05.700Z,94840.84
2018-06-12T02:26:34.764Z,94842.52
2018-06-12T02:31:39.625Z,94851.05
2018-06-12T02:36:44.465Z,94856.10
2018-06-12T02:39:13.533Z,94851.45
2018-06-12T02:41:42.581Z,94847.56
2018-06-12T02:44:11.732Z,94843.80
2018-06-12T02:46:40.812Z,94846.03
2018-06-12T02:49:09.889Z,94842.70
2018-06-12T02:51:38.961Z,94840.54
2018-06-12T02:54:08.029Z,94837.16
2018-06-12T02:56:37.100Z,94838.03
2018-06-12T02:59:06.159Z,94830.59
2018-06-12T03:01:35.238Z,94836.73
2018-06-12T03:06:40.023Z,94834.52
2018-06-12T03:09:09.102Z,94842.19
2018-06-12T03:11:38.165Z,94844.58
2018-06-12T03:16:42.953Z,94836.48
2018-06-12T03:19:12.034Z,94838.59
2018-06-12T03:21:41.097Z,94839.07
2018-06-12T03:24:10.166Z,94833.44
2018-06-12T03:26:39.242Z,94820.41
2018-06-12T03:29:10.273Z,94812.26
2018-06-12T03:31:39.349Z,94822.97
2018-06-12T03:34:08.555Z,94826.13
2018-06-12T03:36:37.625Z,94822.09
2018-06-12T03:39:06.726Z,94828.11
2018-06-12T03:41:35.803Z,94822.30
2018-06-12T03:44:05.822Z,94818.47
2018-06-12T03:46:34.930Z,94819.84
2018-06-12T03:49:05.951Z,94817.61
2018-06-12T03:51:35.012Z,94816.91
2018-06-12T03:54:04.078Z,94826.45
2018-06-12T03:56:33.155Z,94834.41
2018-06-12T03:59:02.270Z,94838.67
2018-06-12T04:01:31.346Z,94849.46
2018-06-12T04:04:02.585Z,94843.97
2018-06-12T04:06:32.608Z,94844.47
2018-06-12T04:09:01.679Z,94838.69
2018-06-12T04:11:30.735Z,94833.52
2018-06-12T04:13:59.848Z,94833.08
2018-06-12T04:16:28.941Z,94837.38
2018-06-12T04:24:09.120Z,94839.14
2018-06-12T04:26:38.210Z,94834.23
2018-06-12T04:29:07.278Z,94835.06
2018-06-12T04:31:37.311Z,94846.55
2018-06-12T04:34:06.408Z,94857.56
2018-06-12T04:39:11.797Z,94861.34
2018-06-12T04:41:40.872Z,94855.95
2018-06-12T04:44:09.952Z,94858.20
2018-06-12T04:46:46.341Z,94861.77
2018-06-12T04:49:15.478Z,94857.11
2018-06-12T04:51:49.984Z,94857.55
2018-06-12T04:54:23.011Z,94858.97
2018-06-12T04:56:52.074Z,94858.00
2018-06-12T04:59:26.477Z,94849.23
2018-06-12T05:01:55.539Z,94851.10
2018-06-12T05:04:24.593Z,94851.28
2018-06-12T05:09:29.451Z,94853.17
2018-06-12T05:11:58.516Z,94860.78
2018-06-12T05:14:28.539Z,94864.52
2018-06-12T05:16:58.524Z,94864.00
2018-06-12T05:19:27.592Z,94865.86
2018-06-12T05:21:56.653Z,94861.28
2018-06-12T05:24:25.709Z,94855.07
2018-06-12T05:26:54.775Z,94850.63
2018-06-12T05:29:23.852Z,94849.39
2018-06-12T05:31:52.923Z,94852.58
2018-06-12T05:34:21.987Z,94865.42
2018-06-12T05:36:51.058Z,94878.63
2018-06-12T05:39:21.089Z,94880.67
2018-06-12T05:41:51.072Z,94884.75
2018-06-12T05:44:20.154Z,94887.70
2018-06-12T05:46:49.241Z,94890.02
2018-06-12T05:51:54.071Z,94885.19
2018-06-12T05:59:36.734Z,94892.55
2018-06-12T06:02:05.800Z,94890.77
2018-06-12T06:04:34.856Z,94883.70
2018-06-12T06:07:04.057Z,94886.23
2018-06-12T06:09:33.125Z,94889.73
2018-06-12T06:12:02.185Z,94889.50
2018-06-12T06:14:31.252Z,94888.60
2018-06-12T06:17:00.329Z,94887.00
2018-06-12T06:19:29.395Z,94887.52
2018-06-12T06:21:58.482Z,94890.12
2018-06-12T06:24:28.600Z,94890.16
2018-06-12T06:26:58.663Z,94890.95
2018-06-12T06:29:28.256Z,94892.95
2018-06-12T06:31:57.577Z,94897.14
2018-06-12T06:34:28.485Z,94903.47
2018-06-12T06:36:57.767Z,94905.51
2018-06-12T06:39:28.104Z,94905.20
2018-06-12T06:41:57.477Z,94902.36
2018-06-12T06:47:04.464Z,94900.25
2018-06-12T06:49:35.513Z,94899.68
2018-06-12T06:52:05.775Z,94901.77
2018-06-12T06:54:36.542Z,94900.88
2018-06-12T06:57:05.941Z,94901.39
2018-06-12T07:02:08.342Z,94895.27
2018-06-12T07:04:38.113Z,94894.66
2018-06-12T07:07:07.641Z,94891.90
2018-06-12T07:09:36.891Z,94887.50
2018-06-12T07:12:06.486Z,94884.19
2018-06-12T07:14:35.551Z,94883.69
2018-06-12T07:17:04.637Z,94884.92
2018-06-12T07:19:33.785Z,94883.37
2018-06-12T07:22:03.038Z,94879.86
2018-06-12T07:24:35.607Z,94876.48
2018-06-12T07:27:04.723Z,94878.21
2018-06-12T07:29:33.805Z,94879.42
2018-06-12T07:32:02.850Z,94880.11
2018-06-12T07:34:31.914Z,94878.84
2018-06-12T07:37:00.983Z,94879.09
2018-06-12T07:39:30.038Z,94876.38
2018-06-12T07:41:59.106Z,94881.13
2018-06-12T07:47:04.476Z,94876.58
2018-06-12T07:49:33.536Z,94878.00
2018-06-12T07:52:02.593Z,94880.13
2018-06-12T07:54:31.651Z,94873.95
2018-06-12T07:57:00.721Z,94876.70
2018-06-12T08:02:05.525Z,94878.13
2018-06-12T08:09:50.595Z,94872.34
2018-06-12T08:12:19.688Z,94873.23
2018-06-12T08:14:48.746Z,94872.34
2018-06-12T08:17:18.813Z,94867.70
2018-06-12T08:22:27.076Z,94870.59
2018-06-12T08:24:56.133Z,94873.14
2018-06-12T08:27:28.933Z,94868.49
2018-06-12T08:35:09.440Z,94860.20
2018-06-12T08:37:38.496Z,94863.23
2018-06-12T08:40:07.554Z,94867.05
2018-06-12T08:42:36.614Z,94869.94
2018-06-12T08:45:11.210Z,94867.38
2018-06-12T08:47:45.128Z,94863.00
2018-06-12T08:50:14.186Z,94864.39
2018-06-12T08:52:43.268Z,94864.53
2018-06-12T08:55:12.322Z,94866.75
2018-06-12T09:00:17.202Z,94859.19
2018-06-12T09:02:46.782Z,94853.38
2018-06-12T09:05:15.817Z,94849.73
2018-06-12T09:07:44.885Z,94844.68
2018-06-12T09:10:13.998Z,94848.32
2018-06-12T09:12:43.066Z,94851.75
2018-06-12T09:15:12.124Z,94849.85
2018-06-12T09:17:41.190Z,94853.77
2018-06-12T09:20:10.232Z,94854.86
2018-06-12T09:22:39.274Z,94857.80
2018-06-12T09:25:08.373Z,94858.47
2018-06-12T09:30:13.146Z,94857.11
2018-06-12T09:35:17.978Z,94856.31
2018-06-12T09:40:23.763Z,94848.57
2018-06-12T09:42:52.872Z,94846.55
2018-06-12T09:45:21.921Z,94845.22
2018-06-12T09:47:51.997Z,94849.36
2018-06-12T09:50:21.046Z,94843.94
2018-06-12T09:52:50.094Z,94838.18
2018-06-12T09:55:19.154Z,94838.66
2018-06-12T09:57:48.246Z,94834.00
2018-06-12T10:02:56.701Z,94834.34
2018-06-12T10:05:25.766Z,94833.70
2018-06-12T10:10:31.695Z,94831.38
2018-06-12T10:15:37.573Z,94821.41
2018-06-12T10:18:06.626Z,94818.41
2018-06-12T10:20:35.665Z,94817.44
2018-06-12T10:23:06.622Z,94815.02
2018-06-12T10:28:11.472Z,94811.86
2018-06-12T10:30:40.529Z,94804.05
2018-06-12T10:33:09.577Z,94804.64
2018-06-12T10:35:38.634Z,94807.72
2018-06-12T10:38:07.693Z,94808.27
2018-06-12T10:40:36.737Z,94805.81
2018-06-12T10:43:06.205Z,94803.77
2018-06-12T10:45:35.272Z,94803.87
2018-06-12T10:50:40.126Z,94806.35
2018-06-12T10:55:45.062Z,94791.34
2018-06-12T10:58:14.093Z,94785.34
2018-06-12T11:00:43.163Z,94774.28
2018-06-12T11:03:12.214Z,94773.39
2018-06-12T11:05:41.277Z,94773.18
2018-06-12T11:08:10.345Z,94766.32
2018-06-12T11:10:39.396Z,94760.19
2018-06-12T11:13:08.465Z,94751.67
2018-06-12T11:15:37.507Z,94756.28
2018-06-12T11:18:06.726Z,94757.52
2018-06-12T11:20:35.878Z,94752.94
2018-06-12T11:25:40.224Z,94751.39
2018-06-12T11:28:09.329Z,94742.40
2018-06-12T11:30:38.398Z,94739.34
2018-06-12T11:33:08.445Z,94737.73
2018-06-12T11:35:37.448Z,94729.57
2018-06-12T11:38:10.386Z,94727.22
2018-06-12T11:40:39.469Z,94723.67
2018-06-12T11:43:08.515Z,94723.45
2018-06-12T11:45:37.571Z,94717.20
2018-06-12T11:50:43.452Z,94703.41
2018-06-12T11:53:15.665Z,94693.77
2018-06-12T11:55:44.738Z,94690.95
2018-06-12T11:58:13.804Z,94679.31
2018-06-12T12:00:42.880Z,94672.39
2018-06-12T12:03:11.946Z,94664.34
2018-06-12T12:05:41.034Z,94661.55
2018-06-12T12:08:10.153Z,94654.68
2018-06-12T12:10:39.543Z,94653.53
2018-06-12T12:13:08.628Z,94651.39
2018-06-12T12:15:37.675Z,94654.52
2018-06-12T12:18:06.757Z,94639.02
2018-06-12T12:20:35.802Z,94638.99
2018-06-12T12:23:05.591Z,94629.78
2018-06-12T12:25:34.654Z,94635.75
2018-06-12T12:28:04.995Z,94631.41
2018-06-12T12:33:09.931Z,94624.83
2018-06-12T12:35:39.021Z,94625.23
2018-06-12T12:38:08.082Z,94634.47
2018-06-12T12:40:37.202Z,94636.13
2018-06-12T12:43:07.078Z,94632.34
2018-06-12T12:45:36.144Z,94633.31
2018-06-12T12:48:05.971Z,94641.34
2018-06-12T12:53:10.852Z,94646.43
2018-06-12T12:55:39.911Z,94644.91
2018-06-12T12:58:09.039Z,94643.70
2018-06-12T13:00:40.042Z,94642.45
2018-06-12T13:03:09.099Z,94645.19
2018-06-12T13:08:15.476Z,94648.64
2018-06-12T13:10:45.465Z,94648.37
2018-06-12T13:13:14.556Z,94645.75
2018-06-12T13:15:44.603Z,94641.61
2018-06-12T13:18:13.662Z,94641.09
2018-06-12T13:20:42.721Z,94644.91
2018-06-12T13:23:11.854Z,94641.20
2018-06-12T13:25:41.926Z,94641.77
2018-06-12T13:28:11.062Z,94634.16
2018-06-12T13:30:40.098Z,94638.20
2018-06-12T13:33:09.156Z,94637.33
2018-06-12T13:35:38.234Z,94639.11
2018-06-12T13:40:43.070Z,94643.16
2018-06-12T13:43:12.192Z,94642.41
2018-06-12T13:45:41.272Z,94638.03
2018-06-12T13:48:14.849Z,94634.47
2018-06-12T13:50:48.130Z,94636.01
2018-06-12T13:55:59.108Z,94638.80
2018-06-12T13:58:28.259Z,94632.12
2018-06-12T14:00:57.365Z,94634.86
2018-06-12T14:03:26.438Z,94632.50
2018-06-12T14:05:55.517Z,94621.66
2018-06-12T14:08:24.596Z,94620.94
2018-06-12T14:10:54.640Z,94615.98
2018-06-12T14:13:23.688Z,94620.89
2018-06-12T14:15:57.361Z,94616.62
2018-06-12T14:18:26.693Z,94613.25
2018-06-12T14:20:55.814Z,94608.29
2018-06-12T14:23:24.869Z,94613.33
2018-06-12T14:25:54.862Z,94613.65
2018-06-12T14:28:23.941Z,94620.42
2018-06-12T14:30:52.997Z,94615.53
2018-06-12T14:33:22.060Z,94618.14
2018-06-12T14:38:32.822Z,94626.16
2018-06-12T14:43:37.640Z,94626.06
2018-06-12T14:46:07.850Z,94623.83
2018-06-12T14:48:36.969Z,94628.58
2018-06-12T14:51:06.121Z,94631.03
2018-06-12T14:53:35.193Z,94634.16
2018-06-12T14:58:40.519Z,94631.91
2018-06-12T15:01:11.703Z,94627.20
2018-06-12T15:03:41.808Z,94621.14
2018-06-12T15:06:10.853Z,94619.96
2018-06-12T15:08:39.929Z,94624.72
2018-06-12T15:13:44.758Z,94641.69
2018-06-12T15:16:13.828Z,94661.09
2018-06-12T15:18:42.882Z,94675.63
2018-06-12T15:23:47.669Z,94694.94
2018-06-12T15:26:24.547Z,94715.88
2018-06-12T15:28:53.618Z,94728.27
2018-06-12T15:31:22.682Z,94735.34
2018-06-12T15:33:51.751Z,94738.95
2018-06-12T15:38:56.675Z,94739.28
2018-06-12T15:41:26.717Z,94723.31
2018-06-12T15:43:55.806Z,94719.83
2018-06-12T15:46:24.870Z,94724.01
2018-06-12T15:48:53.917Z,94731.09
2018-06-12T15:53:58.812Z,94732.49
2018-06-12T15:56:27.876Z,94745.06
2018-06-12T15:58:56.932Z,94748.98
2018-06-12T16:01:25.566Z,94748.83
2018-06-12T16:03:54.092Z,94751.11
2018-06-12T16:06:22.632Z,94764.29
2018-06-12T16:08:51.437Z,94766.03
2018-06-12T16:11:20.052Z,94768.91
2018-06-12T16:13:48.591Z,94766.81
2018-06-12T16:16:17.133Z,94762.04
2018-06-12T16:18:45.667Z,94761.39
2018-06-12T16:21:14.204Z,94763.16
2018-06-12T16:23:42.756Z,94767.75
2018-06-12T16:26:11.318Z,94764.14
2018-06-12T16:28:39.911Z,94758.95
2018-06-12T16:31:08.463Z,94753.16
2018-06-12T16:33:37.115Z,94748.16
2018-06-12T16:36:05.686Z,94741.59
2018-06-12T16:38:34.204Z,94741.15
2018-06-12T16:41:02.763Z,94750.89
2018-06-12T16:43:31.299Z,94749.20
2018-06-12T16:45:59.843Z,94746.02
2018-06-12T16:48:29.770Z,94749.61
2018-06-12T16:50:58.295Z,94752.86
2018-06-12T16:53:27.866Z,94749.20
2018-06-12T16:55:56.403Z,94751.59
2018-06-12T16:58:24.952Z,94746.04
2018-06-12T17:00:53.532Z,94741.05
2018-06-12T17:03:22.069Z,94735.41
2018-06-12T17:05:53.663Z,94730.70
2018-06-12T17:08:22.230Z,94731.80
2018-06-12T17:10:50.762Z,94728.84
2018-06-12T17:13:19.300Z,94723.84
2018-06-12T17:15:47.837Z,94723.53
2018-06-12T17:18:16.412Z,94716.33
2018-06-12T17:20:44.958Z,94723.16
2018-06-12T17:23:13.512Z,94727.42
2018-06-12T17:25:42.112Z,94736.84
2018-06-12T17:28:11.613Z,94736.45
2018-06-12T17:30:40.240Z,94739.59
2018-06-12T17:33:08.813Z,94741.36
2018-06-12T17:35:37.404Z,94745.83
2018-06-12T17:38:05.962Z,94748.37
2018-06-12T17:40:34.490Z,94748.20
2018-06-12T17:43:03.032Z,94747.73
2018-06-12T17:45:31.617Z,94740.86
2018-06-12T17:48:00.189Z,94740.37
2018-06-12T17:50:31.350Z,94735.16
2018-06-12T17:53:00.112Z,94727.70
2018-06-12T17:55:28.805Z,94725.31
2018-06-12T17:57:59.470Z,94725.60
2018-06-12T18:00:28.031Z,94723.89
2018-06-12T18:03:01.715Z,94727.59
2018-06-12T18:05:30.482Z,94730.38
2018-06-12T18:08:01.024Z,94730.04
2018-06-12T18:10:30.601Z,94728.72
2018-06-12T18:12:59.171Z,94730.66
2018-06-12T18:15:28.114Z,94725.16
2018-06-12T18:17:56.653Z,94723.77
2018-06-12T18:20:26.352Z,94731.94
2018-06-12T18:22:55.108Z,94733.16
2018-06-12T18:25:23.652Z,94730.17
2018-06-12T18:27:52.214Z,94732.88
2018-06-12T18:30:21.895Z,94738.95
2018-06-12T18:32:51.432Z,94742.14
2018-06-12T18:35:20.115Z,94740.34
2018-06-12T18:37:48.665Z,94743.95
2018-06-12T18:40:17.206Z,94745.35
2018-06-12T18:42:46.047Z,94747.11
2018-06-12T18:45:14.631Z,94749.19
2018-06-12T18:47:43.167Z,94751.23
2018-06-12T18:50:11.768Z,94744.55
2018-06-12T18:52:43.938Z,94745.41
2018-06-12T18:55:12.500Z,94741.64
2018-06-12T18:57:41.223Z,94735.00
2018-06-12T19:00:09.788Z,94736.27
2018-06-12T19:02:38.343Z,94728.52
2018-06-12T19:05:07.876Z,94727.86
2018-06-12T19:07:36.424Z,94730.90
2018-06-12T19:10:06.000Z,94733.85
2018-06-12T19:12:34.573Z,94731.67
2018-06-12T19:15:03.137Z,94725.23
2018-06-12T19:17:31.721Z,94717.37
2018-06-12T19:20:10.442Z,94717.80
2018-06-12T19:22:49.030Z,94719.05
2018-06-12T19:25:26.646Z,94714.55
2018-06-12T19:28:06.902Z,94715.98
2018-06-12T19:30:44.756Z,94711.15
2018-06-12T19:33:23.836Z,94709.30
2018-06-12T19:36:01.638Z,94707.94
2018-06-12T19:38:41.484Z,94707.23
2018-06-12T19:41:22.135Z,94707.20
2018-06-12T19:43:59.995Z,94711.13
2018-06-12T19:46:29.002Z,94713.75
2018-06-12T19:49:01.003Z,94731.59
2018-06-12T19:51:29.947Z,94741.39
2018-06-12T19:54:01.736Z,94741.77
2018-06-12T19:56:30.999Z,94755.87
2018-06-12T19:59:00.037Z,94758.93
2018-06-12T20:01:28.732Z,94762.86
2018-06-12T20:03:58.664Z,94764.22
2018-06-12T20:06:27.336Z,94771.31
2018-06-12T20:08:56.249Z,94771.74
2018-06-12T20:11:25.172Z,94777.11
2018-06-12T20:13:53.885Z,94784.26
2018-06-12T20:16:23.000Z,94780.07
2018-06-12T20:18:51.729Z,94781.47
2018-06-12T20:21:20.354Z,94779.58
2018-06-12T20:23:49.522Z,94778.09
2018-06-12T20:26:18.364Z,94778.51
2018-06-12T20:28:47.308Z,94778.27
2018-06-12T20:31:16.106Z,94775.13
2018-06-12T20:33:45.135Z,94774.52
2018-06-12T20:36:13.764Z,94773.33
2018-06-12T20:38:42.468Z,94774.55
2018-06-12T20:41:11.478Z,94770.41
2018-06-12T20:43:40.578Z,94770.66
2018-06-12T20:46:10.595Z,94760.89
2018-06-12T20:48:39.645Z,94759.78
2018-06-12T20:51:08.985Z,94755.61
2018-06-12T20:53:37.592Z,94754.17
2018-06-12T20:56:08.184Z,94746.89
2018-06-12T20:58:39.740Z,94743.77
2018-06-12T21:01:11.602Z,94746.73
2018-06-12T21:03:40.211Z,94751.56
2018-06-12T21:06:08.812Z,94754.56
2018-06-12T21:08:38.841Z,94747.42
2018-06-12T21:11:07.639Z,94753.53
2018-06-12T21:13:41.697Z,94753.08
2018-06-12T21:16:10.199Z,94754.52
2018-06-12T21:18:38.749Z,94753.66
2018-06-12T21:21:07.312Z,94752.14
2018-06-12T21:23:36.834Z,94750.50
2018-06-12T21:26:05.366Z,94747.17
2018-06-12T21:28:35.837Z,94746.40
2018-06-12T21:31:04.352Z,94749.80
2018-06-12T21:33:32.886Z,94748.48
2018-06-12T21:36:03.752Z,94751.28
2018-06-12T21:38:33.296Z,94745.20
2018-06-12T21:41:01.829Z,94745.12
2018-06-12T21:43:30.460Z,94744.48
2018-06-12T21:45:58.963Z,94746.44
2018-06-12T21:48:27.555Z,94745.54
2018-06-12T21:50:57.031Z,94745.05
2018-06-12T21:53:25.560Z,94744.59
2018-06-12T21:55:54.101Z,94743.18
2018-06-12T21:58:22.661Z,94738.80
2018-06-12T22:00:51.220Z,94740.96
2018-06-12T22:03:19.750Z,94746.62
2018-06-12T22:05:51.572Z,94748.55
2018-06-12T22:08:20.099Z,94749.55
2018-06-12T22:10:48.645Z,94749.50
2018-06-12T22:13:17.185Z,94747.90
2018-06-12T22:15:45.722Z,94751.43
2018-06-12T22:18:14.273Z,94748.02
2018-06-12T22:20:43.784Z,94746.54
2018-06-12T22:23:12.324Z,94747.07
2018-06-12T22:25:40.863Z,94742.77
2018-06-12T22:28:09.412Z,94740.23
2018-06-12T22:30:38.960Z,94738.45
2018-06-12T22:33:09.492Z,94740.35
2018-06-12T22:35:38.024Z,94742.65
2018-06-12T22:38:07.601Z,94740.31
2018-06-12T22:40:36.135Z,94742.84
2018-06-12T22:43:04.663Z,94742.80
2018-06-12T22:45:33.255Z,94745.03
2018-06-12T22:48:01.751Z,94742.45
2018-06-12T22:50:30.288Z,94735.41
2018-06-12T22:53:00.763Z,94736.27
2018-06-12T22:55:29.310Z,94740.56
2018-06-12T22:57:58.848Z,94741.81
2018-06-12T23:00:27.380Z,94739.94
2018-06-12T23:02:55.931Z,94744.42
2018-06-12T23:05:24.485Z,94742.77
2018-06-12T23:07:53.027Z,94741.70
2018-06-12T23:10:21.605Z,94737.64
2018-06-12T23:12:50.102Z,94733.77
2018-06-12T23:15:18.631Z,94734.34
2018-06-12T23:17:50.621Z,94731.92
2018-06-12T23:23:15.989Z,94732.31
2018-06-12T23:25:44.541Z,94729.07
2018-06-12T23:28:13.076Z,94722.79
2018-06-12T23:30:42.633Z,94722.38
2018-06-12T23:33:11.176Z,94718.66
2018-06-12T23:35:39.722Z,94718.09
2018-06-12T23:38:08.316Z,94713.88
2018-06-12T23:40:36.894Z,94720.52
2018-06-12T23:43:05.514Z,94719.37
2018-06-12T23:45:34.069Z,94711.95
2018-06-12T23:48:04.613Z,94708.69
2018-06-12T23:50:34.100Z,94706.36
2018-06-12T23:53:02.648Z,94706.36
2018-06-12T23:55:31.191Z,94705.38
2018-06-12T23:57:59.716Z,94703.69
